Hlavní strana
METAR-TAF:

METAR-TAF

Letiště :

Vilhelmina, Švédsko

zeměpisná šířka: 64-34-44N, zeměpisná délka: 016-50-00E, výška: 347 m

Aktuální stav počasí

Zpráva byla vytvořena před 39 minutami, v 17:20 UTC
Západojihozápadní vítr 15 kt
Teplota 6°C
Vlhkost vzduchu 70%
Tlak 1010 hPa
Viditelnost 10 km a více

METAR: ESNV 181720Z AUTO 25015KT 9999 BKN025/// BKN036/// 06/01 Q1010

Čas: 19:59 (17:59 UTC)


TAF: chybějící

Stav a předpovědi počasí z více než 4 000 letišť (zprávy METAR a TAF).

Červené a žluté tečky na mapě představují dostupné meteorologické stanice.

Když kurzor umístíte na tečku, zobrazí se název stanice.

Pak kliknutím zobrazíte stav a předpověď počasí.

Chcete-li změnit mapu, kliknutím na zelené tlačítko se znaménkem +mapu přiblížíte, kliknutím na zelené tlačítko se znaménkem – mapu oddálíte a kliknutím na zelené šipky přejdete na sousední mapy.


METAR-TAF: